sensor_id;sensor_type;location;lat;lon;timestamp;temperature;humidity
72814;DHT22;60945;48.516;-2.768;2023-08-17T00:00:15;16.00;88.50
72814;DHT22;60945;48.516;-2.768;2023-08-17T00:02:43;16.00;88.20
72814;DHT22;60945;48.516;-2.768;2023-08-17T00:05:09;15.90;88.10
72814;DHT22;60945;48.516;-2.768;2023-08-17T00:07:35;15.90;88.40
72814;DHT22;60945;48.516;-2.768;2023-08-17T00:10:01;15.90;88.60
72814;DHT22;60945;48.516;-2.768;2023-08-17T00:12:26;15.90;88.60
72814;DHT22;60945;48.516;-2.768;2023-08-17T00:14:53;15.90;88.90
72814;DHT22;60945;48.516;-2.768;2023-08-17T00:17:19;15.90;88.80
72814;DHT22;60945;48.516;-2.768;2023-08-17T00:19:45;15.80;88.90
72814;DHT22;60945;48.516;-2.768;2023-08-17T00:22:11;15.80;89.30
72814;DHT22;60945;48.516;-2.768;2023-08-17T00:24:36;15.80;89.30
72814;DHT22;60945;48.516;-2.768;2023-08-17T00:27:02;15.80;89.10
72814;DHT22;60945;48.516;-2.768;2023-08-17T00:29:29;15.80;89.40
72814;DHT22;60945;48.516;-2.768;2023-08-17T00:31:55;15.70;89.40
72814;DHT22;60945;48.516;-2.768;2023-08-17T00:34:21;15.70;90.20
72814;DHT22;60945;48.516;-2.768;2023-08-17T00:36:46;15.90;90.10
72814;DHT22;60945;48.516;-2.768;2023-08-17T00:39:12;15.90;89.60
72814;DHT22;60945;48.516;-2.768;2023-08-17T00:41:37;16.00;88.70
72814;DHT22;60945;48.516;-2.768;2023-08-17T00:44:03;16.00;88.40
72814;DHT22;60945;48.516;-2.768;2023-08-17T00:46:30;15.90;88.80
72814;DHT22;60945;48.516;-2.768;2023-08-17T00:48:56;16.00;88.80
72814;DHT22;60945;48.516;-2.768;2023-08-17T00:51:24;16.00;88.60
72814;DHT22;60945;48.516;-2.768;2023-08-17T00:53:51;15.90;88.50
72814;DHT22;60945;48.516;-2.768;2023-08-17T00:56:18;15.90;89.00
72814;DHT22;60945;48.516;-2.768;2023-08-17T00:58:43;15.90;88.80
72814;DHT22;60945;48.516;-2.768;2023-08-17T01:01:09;15.90;89.00
72814;DHT22;60945;48.516;-2.768;2023-08-17T01:03:35;15.80;89.30
72814;DHT22;60945;48.516;-2.768;2023-08-17T01:06:02;15.80;89.60
72814;DHT22;60945;48.516;-2.768;2023-08-17T01:08:29;15.80;90.20
72814;DHT22;60945;48.516;-2.768;2023-08-17T01:13:43;15.80;90.40
72814;DHT22;60945;48.516;-2.768;2023-08-17T01:16:15;15.80;90.80
72814;DHT22;60945;48.516;-2.768;2023-08-17T01:18:45;15.70;91.10
72814;DHT22;60945;48.516;-2.768;2023-08-17T01:21:14;15.70;91.40
72814;DHT22;60945;48.516;-2.768;2023-08-17T01:23:43;15.70;91.60
72814;DHT22;60945;48.516;-2.768;2023-08-17T01:26:09;15.80;91.90
72814;DHT22;60945;48.516;-2.768;2023-08-17T01:28:35;15.80;92.20
72814;DHT22;60945;48.516;-2.768;2023-08-17T01:31:40;15.80;92.40
72814;DHT22;60945;48.516;-2.768;2023-08-17T01:34:10;15.80;92.10
72814;DHT22;60945;48.516;-2.768;2023-08-17T01:36:52;15.80;91.80
72814;DHT22;60945;48.516;-2.768;2023-08-17T01:39:21;15.70;91.70
72814;DHT22;60945;48.516;-2.768;2023-08-17T01:41:51;15.70;91.40
72814;DHT22;60945;48.516;-2.768;2023-08-17T01:44:18;15.70;91.30
72814;DHT22;60945;48.516;-2.768;2023-08-17T01:46:43;15.70;91.00
72814;DHT22;60945;48.516;-2.768;2023-08-17T01:49:09;15.60;91.30
72814;DHT22;60945;48.516;-2.768;2023-08-17T01:51:35;15.60;91.30
72814;DHT22;60945;48.516;-2.768;2023-08-17T01:54:00;15.60;91.30
72814;DHT22;60945;48.516;-2.768;2023-08-17T01:56:26;15.50;91.10
72814;DHT22;60945;48.516;-2.768;2023-08-17T01:58:51;15.50;91.20
72814;DHT22;60945;48.516;-2.768;2023-08-17T02:01:17;15.50;91.20
72814;DHT22;60945;48.516;-2.768;2023-08-17T02:03:43;15.50;91.10
72814;DHT22;60945;48.516;-2.768;2023-08-17T02:06:08;15.50;91.20
72814;DHT22;60945;48.516;-2.768;2023-08-17T02:08:36;15.50;91.10
72814;DHT22;60945;48.516;-2.768;2023-08-17T02:11:01;15.60;91.10
72814;DHT22;60945;48.516;-2.768;2023-08-17T02:13:27;15.50;90.60
72814;DHT22;60945;48.516;-2.768;2023-08-17T02:15:53;15.50;91.10
72814;DHT22;60945;48.516;-2.768;2023-08-17T02:18:18;15.50;90.80
72814;DHT22;60945;48.516;-2.768;2023-08-17T02:20:44;15.50;90.90
72814;DHT22;60945;48.516;-2.768;2023-08-17T02:23:10;15.50;91.10
72814;DHT22;60945;48.516;-2.768;2023-08-17T02:25:39;15.60;91.10
72814;DHT22;60945;48.516;-2.768;2023-08-17T02:28:05;15.60;91.20
72814;DHT22;60945;48.516;-2.768;2023-08-17T02:30:31;15.60;91.20
72814;DHT22;60945;48.516;-2.768;2023-08-17T02:32:57;15.70;91.30
72814;DHT22;60945;48.516;-2.768;2023-08-17T02:35:23;15.70;91.20
72814;DHT22;60945;48.516;-2.768;2023-08-17T02:37:48;15.80;91.10
72814;DHT22;60945;48.516;-2.768;2023-08-17T02:40:14;15.70;91.00
72814;DHT22;60945;48.516;-2.768;2023-08-17T02:42:40;15.70;91.30
72814;DHT22;60945;48.516;-2.768;2023-08-17T02:45:08;15.70;91.90
72814;DHT22;60945;48.516;-2.768;2023-08-17T02:47:34;15.70;92.00
72814;DHT22;60945;48.516;-2.768;2023-08-17T02:50:00;15.80;92.10
72814;DHT22;60945;48.516;-2.768;2023-08-17T02:52:25;15.90;91.70
72814;DHT22;60945;48.516;-2.768;2023-08-17T02:54:51;15.90;91.40
72814;DHT22;60945;48.516;-2.768;2023-08-17T02:57:17;15.90;91.10
72814;DHT22;60945;48.516;-2.768;2023-08-17T02:59:43;15.90;91.20
72814;DHT22;60945;48.516;-2.768;2023-08-17T03:02:09;16.00;90.90
72814;DHT22;60945;48.516;-2.768;2023-08-17T03:04:35;16.10;90.70
72814;DHT22;60945;48.516;-2.768;2023-08-17T03:07:00;16.00;90.10
72814;DHT22;60945;48.516;-2.768;2023-08-17T03:09:26;15.90;90.20
72814;DHT22;60945;48.516;-2.768;2023-08-17T03:11:51;15.80;90.70
72814;DHT22;60945;48.516;-2.768;2023-08-17T03:14:17;15.80;90.90
72814;DHT22;60945;48.516;-2.768;2023-08-17T03:16:43;15.80;91.30
72814;DHT22;60945;48.516;-2.768;2023-08-17T03:19:08;15.80;91.40
72814;DHT22;60945;48.516;-2.768;2023-08-17T03:21:36;15.70;91.60
72814;DHT22;60945;48.516;-2.768;2023-08-17T03:24:02;15.70;91.70
72814;DHT22;60945;48.516;-2.768;2023-08-17T03:26:28;15.70;91.90
72814;DHT22;60945;48.516;-2.768;2023-08-17T03:28:54;15.70;92.10
72814;DHT22;60945;48.516;-2.768;2023-08-17T03:31:20;15.70;92.40
72814;DHT22;60945;48.516;-2.768;2023-08-17T03:33:47;15.70;92.60
72814;DHT22;60945;48.516;-2.768;2023-08-17T03:36:12;15.70;92.60
72814;DHT22;60945;48.516;-2.768;2023-08-17T03:38:38;15.70;92.50
72814;DHT22;60945;48.516;-2.768;2023-08-17T03:41:05;15.70;92.90
72814;DHT22;60945;48.516;-2.768;2023-08-17T03:43:30;15.70;92.70
72814;DHT22;60945;48.516;-2.768;2023-08-17T03:45:56;15.60;92.50
72814;DHT22;60945;48.516;-2.768;2023-08-17T03:48:22;15.60;92.80
72814;DHT22;60945;48.516;-2.768;2023-08-17T03:50:54;15.70;93.00
72814;DHT22;60945;48.516;-2.768;2023-08-17T03:53:19;15.60;92.90
72814;DHT22;60945;48.516;-2.768;2023-08-17T03:55:49;15.60;93.10
72814;DHT22;60945;48.516;-2.768;2023-08-17T03:58:15;15.50;93.40
72814;DHT22;60945;48.516;-2.768;2023-08-17T04:00:41;15.50;93.30
72814;DHT22;60945;48.516;-2.768;2023-08-17T04:03:07;15.50;93.40
72814;DHT22;60945;48.516;-2.768;2023-08-17T04:05:33;15.50;93.40
72814;DHT22;60945;48.516;-2.768;2023-08-17T04:08:00;15.50;93.50
72814;DHT22;60945;48.516;-2.768;2023-08-17T04:10:27;15.50;93.30
72814;DHT22;60945;48.516;-2.768;2023-08-17T04:12:53;15.50;92.90
72814;DHT22;60945;48.516;-2.768;2023-08-17T04:15:18;15.40;92.70
72814;DHT22;60945;48.516;-2.768;2023-08-17T04:17:44;15.40;92.80
72814;DHT22;60945;48.516;-2.768;2023-08-17T04:20:10;15.40;93.30
72814;DHT22;60945;48.516;-2.768;2023-08-17T04:22:36;15.30;93.30
72814;DHT22;60945;48.516;-2.768;2023-08-17T04:25:01;15.40;93.70
72814;DHT22;60945;48.516;-2.768;2023-08-17T04:27:27;15.40;93.40
72814;DHT22;60945;48.516;-2.768;2023-08-17T04:29:53;15.40;93.10
72814;DHT22;60945;48.516;-2.768;2023-08-17T04:32:19;15.40;93.10
72814;DHT22;60945;48.516;-2.768;2023-08-17T04:34:45;15.40;93.10
72814;DHT22;60945;48.516;-2.768;2023-08-17T04:37:11;15.40;93.00
72814;DHT22;60945;48.516;-2.768;2023-08-17T04:39:37;15.40;93.10
72814;DHT22;60945;48.516;-2.768;2023-08-17T04:42:03;15.30;93.20
72814;DHT22;60945;48.516;-2.768;2023-08-17T04:44:29;15.30;93.40
72814;DHT22;60945;48.516;-2.768;2023-08-17T04:46:55;15.30;93.20
72814;DHT22;60945;48.516;-2.768;2023-08-17T04:49:21;15.30;93.20
72814;DHT22;60945;48.516;-2.768;2023-08-17T04:51:46;15.40;93.20
72814;DHT22;60945;48.516;-2.768;2023-08-17T04:54:12;15.40;93.10
72814;DHT22;60945;48.516;-2.768;2023-08-17T04:56:38;15.40;93.10
72814;DHT22;60945;48.516;-2.768;2023-08-17T04:59:04;15.30;93.00
72814;DHT22;60945;48.516;-2.768;2023-08-17T05:01:29;15.30;93.10
72814;DHT22;60945;48.516;-2.768;2023-08-17T05:03:55;15.30;92.90
72814;DHT22;60945;48.516;-2.768;2023-08-17T05:06:21;15.30;92.80
72814;DHT22;60945;48.516;-2.768;2023-08-17T05:08:46;15.30;93.10
72814;DHT22;60945;48.516;-2.768;2023-08-17T05:11:12;15.20;93.20
72814;DHT22;60945;48.516;-2.768;2023-08-17T05:13:38;15.20;93.50
72814;DHT22;60945;48.516;-2.768;2023-08-17T05:16:04;15.30;93.90
72814;DHT22;60945;48.516;-2.768;2023-08-17T05:18:29;15.40;93.70
72814;DHT22;60945;48.516;-2.768;2023-08-17T05:20:55;15.30;93.10
72814;DHT22;60945;48.516;-2.768;2023-08-17T05:23:20;15.40;93.40
72814;DHT22;60945;48.516;-2.768;2023-08-17T05:25:47;15.40;93.10
72814;DHT22;60945;48.516;-2.768;2023-08-17T05:28:15;15.40;93.20
72814;DHT22;60945;48.516;-2.768;2023-08-17T05:30:40;15.50;93.10
72814;DHT22;60945;48.516;-2.768;2023-08-17T05:33:06;15.50;92.70
72814;DHT22;60945;48.516;-2.768;2023-08-17T05:35:32;15.50;92.50
72814;DHT22;60945;48.516;-2.768;2023-08-17T05:37:58;15.50;92.50
72814;DHT22;60945;48.516;-2.768;2023-08-17T05:40:24;15.50;92.40
72814;DHT22;60945;48.516;-2.768;2023-08-17T05:42:49;15.60;92.40
72814;DHT22;60945;48.516;-2.768;2023-08-17T05:45:15;15.60;91.90
72814;DHT22;60945;48.516;-2.768;2023-08-17T05:47:41;15.70;91.70
72814;DHT22;60945;48.516;-2.768;2023-08-17T05:50:07;15.70;91.50
72814;DHT22;60945;48.516;-2.768;2023-08-17T05:52:32;15.80;91.20
72814;DHT22;60945;48.516;-2.768;2023-08-17T05:54:58;15.80;90.90
72814;DHT22;60945;48.516;-2.768;2023-08-17T05:57:24;15.90;90.90
72814;DHT22;60945;48.516;-2.768;2023-08-17T05:59:50;15.90;90.40
72814;DHT22;60945;48.516;-2.768;2023-08-17T06:02:15;15.90;90.20
72814;DHT22;60945;48.516;-2.768;2023-08-17T06:04:41;16.00;89.80
72814;DHT22;60945;48.516;-2.768;2023-08-17T06:07:07;16.00;89.80
72814;DHT22;60945;48.516;-2.768;2023-08-17T06:09:32;16.10;89.50
72814;DHT22;60945;48.516;-2.768;2023-08-17T06:11:58;16.30;88.80
72814;DHT22;60945;48.516;-2.768;2023-08-17T06:14:23;16.40;87.80
72814;DHT22;60945;48.516;-2.768;2023-08-17T06:16:49;16.50;87.60
72814;DHT22;60945;48.516;-2.768;2023-08-17T06:19:15;16.60;86.80
72814;DHT22;60945;48.516;-2.768;2023-08-17T06:21:41;16.70;86.30
72814;DHT22;60945;48.516;-2.768;2023-08-17T06:24:06;16.70;85.70
72814;DHT22;60945;48.516;-2.768;2023-08-17T06:26:32;16.80;85.90
72814;DHT22;60945;48.516;-2.768;2023-08-17T06:28:58;16.90;85.30
72814;DHT22;60945;48.516;-2.768;2023-08-17T06:31:23;17.10;85.00
72814;DHT22;60945;48.516;-2.768;2023-08-17T06:33:54;17.20;84.80
72814;DHT22;60945;48.516;-2.768;2023-08-17T06:36:20;17.40;83.30
72814;DHT22;60945;48.516;-2.768;2023-08-17T06:38:45;17.50;82.30
72814;DHT22;60945;48.516;-2.768;2023-08-17T06:41:11;17.60;81.30
72814;DHT22;60945;48.516;-2.768;2023-08-17T06:43:37;17.60;81.50
72814;DHT22;60945;48.516;-2.768;2023-08-17T06:46:02;17.60;81.60
72814;DHT22;60945;48.516;-2.768;2023-08-17T06:48:28;17.60;81.80
72814;DHT22;60945;48.516;-2.768;2023-08-17T06:50:54;17.70;82.00
72814;DHT22;60945;48.516;-2.768;2023-08-17T06:53:20;17.60;82.20
72814;DHT22;60945;48.516;-2.768;2023-08-17T06:55:46;17.70;82.30
72814;DHT22;60945;48.516;-2.768;2023-08-17T06:58:12;17.70;82.50
72814;DHT22;60945;48.516;-2.768;2023-08-17T07:00:38;17.80;82.10
72814;DHT22;60945;48.516;-2.768;2023-08-17T07:03:06;17.80;82.10
72814;DHT22;60945;48.516;-2.768;2023-08-17T07:05:34;17.90;81.90
72814;DHT22;60945;48.516;-2.768;2023-08-17T07:08:00;18.00;82.00
72814;DHT22;60945;48.516;-2.768;2023-08-17T07:10:27;18.10;82.40
72814;DHT22;60945;48.516;-2.768;2023-08-17T07:12:52;18.10;82.60
72814;DHT22;60945;48.516;-2.768;2023-08-17T07:15:19;18.10;82.60
72814;DHT22;60945;48.516;-2.768;2023-08-17T07:17:45;18.20;81.90
72814;DHT22;60945;48.516;-2.768;2023-08-17T07:20:11;18.30;81.90
72814;DHT22;60945;48.516;-2.768;2023-08-17T07:22:37;18.40;81.80
72814;DHT22;60945;48.516;-2.768;2023-08-17T07:25:03;18.50;81.70
72814;DHT22;60945;48.516;-2.768;2023-08-17T07:27:29;18.60;81.20
72814;DHT22;60945;48.516;-2.768;2023-08-17T07:29:55;18.70;81.20
72814;DHT22;60945;48.516;-2.768;2023-08-17T07:32:21;18.90;81.00
72814;DHT22;60945;48.516;-2.768;2023-08-17T07:34:47;19.10;79.80
72814;DHT22;60945;48.516;-2.768;2023-08-17T07:37:12;19.30;78.40
72814;DHT22;60945;48.516;-2.768;2023-08-17T07:39:38;19.60;77.20
72814;DHT22;60945;48.516;-2.768;2023-08-17T07:42:04;19.90;76.20
72814;DHT22;60945;48.516;-2.768;2023-08-17T07:44:30;20.10;75.50
72814;DHT22;60945;48.516;-2.768;2023-08-17T07:46:57;20.30;74.40
72814;DHT22;60945;48.516;-2.768;2023-08-17T07:49:24;20.60;73.80
72814;DHT22;60945;48.516;-2.768;2023-08-17T07:51:50;20.80;73.10
72814;DHT22;60945;48.516;-2.768;2023-08-17T07:54:16;20.90;72.60
72814;DHT22;60945;48.516;-2.768;2023-08-17T07:56:41;21.00;72.50
72814;DHT22;60945;48.516;-2.768;2023-08-17T07:59:07;21.00;72.40
72814;DHT22;60945;48.516;-2.768;2023-08-17T08:01:33;21.20;71.30
72814;DHT22;60945;48.516;-2.768;2023-08-17T08:03:58;21.40;70.60
72814;DHT22;60945;48.516;-2.768;2023-08-17T08:06:24;21.60;70.00
72814;DHT22;60945;48.516;-2.768;2023-08-17T08:08:49;21.60;70.50
72814;DHT22;60945;48.516;-2.768;2023-08-17T08:11:15;21.90;69.10
72814;DHT22;60945;48.516;-2.768;2023-08-17T08:13:41;21.90;68.90
72814;DHT22;60945;48.516;-2.768;2023-08-17T08:16:06;22.00;68.60
72814;DHT22;60945;48.516;-2.768;2023-08-17T08:18:32;22.30;67.90
72814;DHT22;60945;48.516;-2.768;2023-08-17T08:20:58;22.30;67.80
72814;DHT22;60945;48.516;-2.768;2023-08-17T08:23:23;22.60;67.00
72814;DHT22;60945;48.516;-2.768;2023-08-17T08:25:49;22.70;66.10
72814;DHT22;60945;48.516;-2.768;2023-08-17T08:28:15;22.90;66.40
72814;DHT22;60945;48.516;-2.768;2023-08-17T08:30:40;23.10;65.80
72814;DHT22;60945;48.516;-2.768;2023-08-17T08:33:06;23.10;64.60
72814;DHT22;60945;48.516;-2.768;2023-08-17T08:35:34;23.00;65.80
72814;DHT22;60945;48.516;-2.768;2023-08-17T08:38:01;23.30;64.20
72814;DHT22;60945;48.516;-2.768;2023-08-17T08:40:28;23.60;63.00
72814;DHT22;60945;48.516;-2.768;2023-08-17T08:42:57;23.90;62.10
72814;DHT22;60945;48.516;-2.768;2023-08-17T08:45:23;24.20;60.60
72814;DHT22;60945;48.516;-2.768;2023-08-17T08:47:49;24.10;60.90
72814;DHT22;60945;48.516;-2.768;2023-08-17T08:50:20;24.20;61.10
72814;DHT22;60945;48.516;-2.768;2023-08-17T08:52:57;24.20;60.80
72814;DHT22;60945;48.516;-2.768;2023-08-17T08:55:29;24.40;60.10
72814;DHT22;60945;48.516;-2.768;2023-08-17T08:57:56;24.60;60.00
72814;DHT22;60945;48.516;-2.768;2023-08-17T09:00:22;25.30;57.20
72814;DHT22;60945;48.516;-2.768;2023-08-17T09:02:48;25.40;56.80
72814;DHT22;60945;48.516;-2.768;2023-08-17T09:05:15;25.60;56.70
72814;DHT22;60945;48.516;-2.768;2023-08-17T09:07:42;25.70;57.30
72814;DHT22;60945;48.516;-2.768;2023-08-17T09:10:09;26.00;56.60
72814;DHT22;60945;48.516;-2.768;2023-08-17T09:12:35;26.50;55.00
72814;DHT22;60945;48.516;-2.768;2023-08-17T09:15:01;26.50;55.50
72814;DHT22;60945;48.516;-2.768;2023-08-17T09:17:27;26.40;55.10
72814;DHT22;60945;48.516;-2.768;2023-08-17T09:19:53;26.60;55.40
72814;DHT22;60945;48.516;-2.768;2023-08-17T09:22:42;26.60;55.40
72814;DHT22;60945;48.516;-2.768;2023-08-17T09:25:09;27.40;53.40
72814;DHT22;60945;48.516;-2.768;2023-08-17T09:27:39;27.40;52.80
72814;DHT22;60945;48.516;-2.768;2023-08-17T09:30:10;27.30;54.40
72814;DHT22;60945;48.516;-2.768;2023-08-17T09:32:36;27.40;53.50
72814;DHT22;60945;48.516;-2.768;2023-08-17T09:35:03;27.80;52.90
72814;DHT22;60945;48.516;-2.768;2023-08-17T09:37:30;28.10;51.90
72814;DHT22;60945;48.516;-2.768;2023-08-17T09:39:56;28.90;50.70
72814;DHT22;60945;48.516;-2.768;2023-08-17T09:42:22;29.40;48.80
72814;DHT22;60945;48.516;-2.768;2023-08-17T09:44:51;29.80;47.80
72814;DHT22;60945;48.516;-2.768;2023-08-17T09:47:18;29.90;47.50
72814;DHT22;60945;48.516;-2.768;2023-08-17T09:49:53;30.30;46.70
72814;DHT22;60945;48.516;-2.768;2023-08-17T09:52:22;30.30;46.90
72814;DHT22;60945;48.516;-2.768;2023-08-17T09:54:49;30.20;47.20
72814;DHT22;60945;48.516;-2.768;2023-08-17T09:57:15;30.60;46.80
72814;DHT22;60945;48.516;-2.768;2023-08-17T09:59:41;30.90;46.50
72814;DHT22;60945;48.516;-2.768;2023-08-17T10:02:18;31.40;44.90
72814;DHT22;60945;48.516;-2.768;2023-08-17T10:04:50;31.50;44.70
72814;DHT22;60945;48.516;-2.768;2023-08-17T10:07:19;31.70;44.70
72814;DHT22;60945;48.516;-2.768;2023-08-17T10:09:49;32.90;42.60
72814;DHT22;60945;48.516;-2.768;2023-08-17T10:12:19;34.20;40.40
72814;DHT22;60945;48.516;-2.768;2023-08-17T10:14:55;35.00;39.00
72814;DHT22;60945;48.516;-2.768;2023-08-17T10:17:26;35.30;37.90
72814;DHT22;60945;48.516;-2.768;2023-08-17T10:19:58;36.70;36.20
72814;DHT22;60945;48.516;-2.768;2023-08-17T10:22:44;37.40;35.40
72814;DHT22;60945;48.516;-2.768;2023-08-17T10:25:15;38.50;33.70
72814;DHT22;60945;48.516;-2.768;2023-08-17T10:27:42;39.40;32.50
72814;DHT22;60945;48.516;-2.768;2023-08-17T10:30:11;39.00;32.70
72814;DHT22;60945;48.516;-2.768;2023-08-17T10:32:38;39.70;32.20
72814;DHT22;60945;48.516;-2.768;2023-08-17T10:35:04;41.40;30.40
72814;DHT22;60945;48.516;-2.768;2023-08-17T10:37:31;41.50;29.90
72814;DHT22;60945;48.516;-2.768;2023-08-17T10:39:57;41.10;30.40
72814;DHT22;60945;48.516;-2.768;2023-08-17T10:42:34;41.50;30.30
72814;DHT22;60945;48.516;-2.768;2023-08-17T10:45:01;42.40;29.00
72814;DHT22;60945;48.516;-2.768;2023-08-17T10:47:32;42.10;29.40
72814;DHT22;60945;48.516;-2.768;2023-08-17T10:50:06;42.70;28.80
72814;DHT22;60945;48.516;-2.768;2023-08-17T10:52:36;40.40;31.00
72814;DHT22;60945;48.516;-2.768;2023-08-17T10:55:07;40.80;31.30
72814;DHT22;60945;48.516;-2.768;2023-08-17T10:57:36;40.20;31.40
72814;DHT22;60945;48.516;-2.768;2023-08-17T11:00:17;40.90;30.70
72814;DHT22;60945;48.516;-2.768;2023-08-17T11:03:09;40.80;30.80
72814;DHT22;60945;48.516;-2.768;2023-08-17T11:05:43;41.70;30.10
72814;DHT22;60945;48.516;-2.768;2023-08-17T11:10:35;43.60;28.40
72814;DHT22;60945;48.516;-2.768;2023-08-17T11:13:03;44.10;27.40
72814;DHT22;60945;48.516;-2.768;2023-08-17T11:15:37;44.00;28.30
72814;DHT22;60945;48.516;-2.768;2023-08-17T11:18:06;43.40;28.10
72814;DHT22;60945;48.516;-2.768;2023-08-17T11:20:32;44.30;27.70
72814;DHT22;60945;48.516;-2.768;2023-08-17T11:22:58;45.60;26.70
72814;DHT22;60945;48.516;-2.768;2023-08-17T11:25:26;46.50;25.70
72814;DHT22;60945;48.516;-2.768;2023-08-17T11:27:53;47.70;24.90
72814;DHT22;60945;48.516;-2.768;2023-08-17T11:30:23;47.70;24.70
72814;DHT22;60945;48.516;-2.768;2023-08-17T11:32:51;48.40;24.20
72814;DHT22;60945;48.516;-2.768;2023-08-17T11:35:18;46.20;25.70
72814;DHT22;60945;48.516;-2.768;2023-08-17T11:37:44;46.90;25.20
72814;DHT22;60945;48.516;-2.768;2023-08-17T11:40:11;44.30;27.00
72814;DHT22;60945;48.516;-2.768;2023-08-17T11:42:37;39.80;31.80
72814;DHT22;60945;48.516;-2.768;2023-08-17T11:45:04;35.60;37.20
72814;DHT22;60945;48.516;-2.768;2023-08-17T11:47:30;33.20;42.30
72814;DHT22;60945;48.516;-2.768;2023-08-17T11:50:03;39.50;33.50
72814;DHT22;60945;48.516;-2.768;2023-08-17T11:52:30;42.40;29.70
72814;DHT22;60945;48.516;-2.768;2023-08-17T11:54:58;43.00;29.60
72814;DHT22;60945;48.516;-2.768;2023-08-17T11:57:24;40.30;31.50
72814;DHT22;60945;48.516;-2.768;2023-08-17T11:59:57;37.10;35.60
72814;DHT22;60945;48.516;-2.768;2023-08-17T12:02:23;33.60;41.40
72814;DHT22;60945;48.516;-2.768;2023-08-17T12:04:50;34.90;40.50
72814;DHT22;60945;48.516;-2.768;2023-08-17T12:07:16;41.40;31.30
72814;DHT22;60945;48.516;-2.768;2023-08-17T12:09:43;41.30;30.60
72814;DHT22;60945;48.516;-2.768;2023-08-17T12:12:10;41.80;30.90
72814;DHT22;60945;48.516;-2.768;2023-08-17T12:14:36;45.30;27.30
72814;DHT22;60945;48.516;-2.768;2023-08-17T12:17:02;44.90;27.30
72814;DHT22;60945;48.516;-2.768;2023-08-17T12:19:29;47.70;25.60
72814;DHT22;60945;48.516;-2.768;2023-08-17T12:21:56;48.10;24.70
72814;DHT22;60945;48.516;-2.768;2023-08-17T12:24:24;45.10;27.10
72814;DHT22;60945;48.516;-2.768;2023-08-17T12:26:50;44.50;27.40
72814;DHT22;60945;48.516;-2.768;2023-08-17T12:29:15;42.30;30.50
72814;DHT22;60945;48.516;-2.768;2023-08-17T12:31:41;46.40;26.40
72814;DHT22;60945;48.516;-2.768;2023-08-17T12:34:07;47.00;25.30
72814;DHT22;60945;48.516;-2.768;2023-08-17T12:36:33;45.90;26.50
72814;DHT22;60945;48.516;-2.768;2023-08-17T12:38:59;48.50;24.60
72814;DHT22;60945;48.516;-2.768;2023-08-17T12:41:24;50.80;22.80
72814;DHT22;60945;48.516;-2.768;2023-08-17T12:43:50;49.30;23.60
72814;DHT22;60945;48.516;-2.768;2023-08-17T12:46:16;44.20;27.80
72814;DHT22;60945;48.516;-2.768;2023-08-17T12:48:41;42.20;30.00
72814;DHT22;60945;48.516;-2.768;2023-08-17T12:51:07;44.10;28.60
72814;DHT22;60945;48.516;-2.768;2023-08-17T12:53:33;46.20;26.40
72814;DHT22;60945;48.516;-2.768;2023-08-17T12:55:59;47.40;25.60
72814;DHT22;60945;48.516;-2.768;2023-08-17T12:58:25;48.10;25.00
72814;DHT22;60945;48.516;-2.768;2023-08-17T13:00:50;47.50;25.60
72814;DHT22;60945;48.516;-2.768;2023-08-17T13:03:19;48.60;24.60
72814;DHT22;60945;48.516;-2.768;2023-08-17T13:05:45;47.00;25.40
72814;DHT22;60945;48.516;-2.768;2023-08-17T13:08:11;44.90;27.80
72814;DHT22;60945;48.516;-2.768;2023-08-17T13:10:37;46.20;26.80
72814;DHT22;60945;48.516;-2.768;2023-08-17T13:13:03;48.90;24.50
72814;DHT22;60945;48.516;-2.768;2023-08-17T13:15:29;48.60;24.50
72814;DHT22;60945;48.516;-2.768;2023-08-17T13:17:55;48.30;24.80
72814;DHT22;60945;48.516;-2.768;2023-08-17T13:20:21;47.00;26.00
72814;DHT22;60945;48.516;-2.768;2023-08-17T13:22:46;48.70;24.70
72814;DHT22;60945;48.516;-2.768;2023-08-17T13:25:12;50.40;23.20
72814;DHT22;60945;48.516;-2.768;2023-08-17T13:27:38;49.30;23.90
72814;DHT22;60945;48.516;-2.768;2023-08-17T13:30:04;48.50;24.20
72814;DHT22;60945;48.516;-2.768;2023-08-17T13:32:29;47.90;25.30
72814;DHT22;60945;48.516;-2.768;2023-08-17T13:34:55;48.30;24.50
72814;DHT22;60945;48.516;-2.768;2023-08-17T13:37:21;46.00;26.70
72814;DHT22;60945;48.516;-2.768;2023-08-17T13:39:46;48.00;25.20
72814;DHT22;60945;48.516;-2.768;2023-08-17T13:42:12;49.10;24.30
72814;DHT22;60945;48.516;-2.768;2023-08-17T13:44:38;50.90;23.20
72814;DHT22;60945;48.516;-2.768;2023-08-17T13:47:04;47.20;25.10
72814;DHT22;60945;48.516;-2.768;2023-08-17T13:49:30;44.20;29.20
72814;DHT22;60945;48.516;-2.768;2023-08-17T13:51:56;47.20;25.50
72814;DHT22;60945;48.516;-2.768;2023-08-17T13:54:23;41.80;31.40
72814;DHT22;60945;48.516;-2.768;2023-08-17T13:56:48;46.20;27.10
72814;DHT22;60945;48.516;-2.768;2023-08-17T13:59:14;43.10;29.30
72814;DHT22;60945;48.516;-2.768;2023-08-17T14:01:40;45.50;28.00
72814;DHT22;60945;48.516;-2.768;2023-08-17T14:04:06;47.80;25.60
72814;DHT22;60945;48.516;-2.768;2023-08-17T14:06:38;44.90;28.50
72814;DHT22;60945;48.516;-2.768;2023-08-17T14:09:04;47.00;26.60
72814;DHT22;60945;48.516;-2.768;2023-08-17T14:11:30;49.60;24.40
72814;DHT22;60945;48.516;-2.768;2023-08-17T14:13:56;50.30;23.90
72814;DHT22;60945;48.516;-2.768;2023-08-17T14:16:22;51.70;23.10
72814;DHT22;60945;48.516;-2.768;2023-08-17T14:18:48;51.80;23.00
72814;DHT22;60945;48.516;-2.768;2023-08-17T14:21:13;52.10;22.80
72814;DHT22;60945;48.516;-2.768;2023-08-17T14:23:39;49.00;24.40
72814;DHT22;60945;48.516;-2.768;2023-08-17T14:26:05;48.40;25.70
72814;DHT22;60945;48.516;-2.768;2023-08-17T14:28:31;50.10;24.20
72814;DHT22;60945;48.516;-2.768;2023-08-17T14:30:57;47.30;25.90
72814;DHT22;60945;48.516;-2.768;2023-08-17T14:33:23;44.70;29.00
72814;DHT22;60945;48.516;-2.768;2023-08-17T14:35:49;45.00;28.80
72814;DHT22;60945;48.516;-2.768;2023-08-17T14:38:15;43.10;29.80
72814;DHT22;60945;48.516;-2.768;2023-08-17T14:40:44;39.50;34.10
72814;DHT22;60945;48.516;-2.768;2023-08-17T14:43:13;40.20;34.00
72814;DHT22;60945;48.516;-2.768;2023-08-17T14:45:43;44.90;29.30
72814;DHT22;60945;48.516;-2.768;2023-08-17T14:48:09;47.50;26.60
72814;DHT22;60945;48.516;-2.768;2023-08-17T14:50:35;45.20;27.80
72814;DHT22;60945;48.516;-2.768;2023-08-17T14:53:02;44.90;28.70
72814;DHT22;60945;48.516;-2.768;2023-08-17T14:55:31;48.40;25.90
72814;DHT22;60945;48.516;-2.768;2023-08-17T14:57:57;50.30;24.40
72814;DHT22;60945;48.516;-2.768;2023-08-17T15:00:23;48.90;24.70
72814;DHT22;60945;48.516;-2.768;2023-08-17T15:02:49;45.40;27.80
72814;DHT22;60945;48.516;-2.768;2023-08-17T15:05:15;44.80;28.50
72814;DHT22;60945;48.516;-2.768;2023-08-17T15:07:41;41.80;31.10
72814;DHT22;60945;48.516;-2.768;2023-08-17T15:10:07;39.10;34.90
72814;DHT22;60945;48.516;-2.768;2023-08-17T15:12:32;35.60;39.60
72814;DHT22;60945;48.516;-2.768;2023-08-17T15:14:58;34.40;41.90
72814;DHT22;60945;48.516;-2.768;2023-08-17T15:17:24;34.90;42.60